Geneva, Switzerland

8:06 AM CET on February 11, 2016 (GMT +0100)
Meythet | | Change Station
CLOSE
Current Station
Airport
Location: Annecy-Haute-Savoie-Mont,
Elevation: 1519 ft
Nearby Weather Stations

Elev 1519 ft 45.93 °N, 6.11 °E | Updated 6 minutes ago

Overcast
Overcast
30 °F
Feels Like 30 °F
N
2
Wind Variable Wind from Variable

Today
High -- | Low -- °F
--% Chance of Precip.
Yesterday
High -- | Low -- °F
Precip. -- in
Pressure 29.80 in
Visibility 6.2 miles
Clouds Scattered Clouds 300 ft
Overcast 900 ft
Dew Point 28 °F
Humidity 93%
Rainfall 0.00 in
Snow Depth Not available.
7:45 AM 5:54 PM
Waxing Crescent, 10% visible
METAR LFLP 110700Z AUTO VRB02KT 9999 SCT003 OVC009 M01/M02 Q1009
Pressure 29.80 in
Visibility 6.2 miles
Clouds Scattered Clouds 300 ft
Overcast 900 ft
Dew Point 28 °F
Humidity 93%
Rainfall 0.00 in
Snow Depth Not available.
7:45 AM 5:54 PM
Waxing Crescent, 10% visible
METAR LFLP 110700Z AUTO VRB02KT 9999 SCT003 OVC009 M01/M02 Q1009

10-Day Weather Forecast

Almanac

Astronomy

Feb. 11, 2016 Rise Set
Actual Time
Civil Twilight
Nautical Twilight
Astronomical Twilight
Moon
Length of Visible Light
Length of Day
Tomorrow will be .
, % of the Moon is Illuminated

Today's Extremes

Country Highs Country Lows

Community

WunderPhotos

Upload Photos

1,892,028 photos uploaded!

WunderBlog® & News

Nearby

Air Quality

  Air Quality AQ Index Pollutant
Not available.

Snow Depth

Station Depth Elevation

Earthquake Activity

City Distance Mag. Time & Date
Minimum magnitude displayed is 2.5.

Coastal Water Temperatures

Place Temperature

Stations

Nearby Weather Stations

Station Location Temp. Windchill Dew Point Humidity Wind Precip. Elev Updated Type